Time;durP1;ratioP1;P1;durP2;ratioP2;P2;SDS_P1;SDS_P2;PMS_P1;PMS_P2;Temp;Humidity;BMP_temperature;BMP_pressure;BME280_temperature;BME280_humidity;BME280_pressure;Samples;Min_cycle;Max_cycle;Signal;HPM_P1;HPM_P2
2024/04/18 00:00:00;;;;;;;14.23;13.02;;;;;;;;;;5319485;26;20011;-93
2024/04/18 00:02:29;;;;;;;16.90;15.50;;;;;;;;;;5317893;26;20009;-92
2024/04/18 00:05:05;;;;;;;17.50;15.95;;;;;;;;;;5318955;26;20426;-92
2024/04/18 00:07:51;;;;;;;15.10;13.65;;;;;;;;;;5319393;26;20003;-92
2024/04/18 00:10:20;;;;;;;16.38;14.95;;;;;;;;;;5319135;26;20326;-92
2024/04/18 00:12:46;;;;;;;14.50;13.20;;;;;;;;;;5318732;26;19997;-92
2024/04/18 00:15:20;;;;;;;16.45;14.95;;;;;;;;;;5318509;26;19993;-93
2024/04/18 00:17:49;;;;;;;14.57;13.18;;;;;;;;;;5317454;26;20000;-93
2024/04/18 00:20:16;;;;;;;13.32;12.13;;;;;;;;;;5353644;26;20001;-93
2024/04/18 00:22:42;;;;;;;13.38;12.13;;;;;;;;;;5348897;26;20000;-92
2024/04/18 00:25:11;;;;;;;15.35;13.88;;;;;;;;;;5351756;26;19995;-92
2024/04/18 00:27:40;;;;;;;17.55;16.08;;;;;;;;;;5319102;26;19997;-93
2024/04/18 00:30:06;;;;;;;14.40;13.18;;;;;;;;;;5318720;26;19996;-94
2024/04/18 00:32:38;;;;;;;13.77;12.48;;;;;;;;;;5314184;26;20044;-91
2024/04/18 00:35:08;;;;;;;14.40;13.02;;;;;;;;;;5318448;26;20013;-93
2024/04/18 00:37:37;;;;;;;16.42;14.95;;;;;;;;;;5318661;26;20489;-92
2024/04/18 00:40:10;;;;;;;13.70;12.48;;;;;;;;;;5318561;26;20004;-92
2024/04/18 00:42:39;;;;;;;12.93;11.73;;;;;;;;;;5318620;26;20346;-92
2024/04/18 00:45:12;;;;;;;14.50;13.18;;;;;;;;;;5318823;26;20008;-92
2024/04/18 00:47:42;;;;;;;13.27;12.18;;;;;;;;;;5350420;26;20000;-92
2024/04/18 00:50:11;;;;;;;14.00;12.65;;;;;;;;;;5353151;26;20014;-92
2024/04/18 00:52:37;;;;;;;12.73;11.63;;;;;;;;;;5353032;26;20012;-93
2024/04/18 00:55:04;;;;;;;13.73;12.32;;;;;;;;;;5353323;26;19997;-93
2024/04/18 00:57:40;;;;;;;16.13;14.10;;;;;;;;;;5325886;26;20004;-92
2024/04/18 01:00:12;;;;;;;14.45;13.15;;;;;;;;;;5325334;26;20433;-91
2024/04/18 01:02:46;;;;;;;13.65;12.40;;;;;;;;;;5353190;26;20073;-93
2024/04/18 01:05:12;;;;;;;19.73;17.98;;;;;;;;;;5353421;26;20000;-94
2024/04/18 01:07:44;;;;;;;14.32;13.10;;;;;;;;;;5352947;26;20000;-93
2024/04/18 01:10:13;;;;;;;14.23;12.82;;;;;;;;;;5353344;26;20444;-93
2024/04/18 01:12:40;;;;;;;13.93;12.45;;;;;;;;;;5353083;26;19996;-94
2024/04/18 01:15:16;;;;;;;12.10;10.05;;;;;;;;;;5352651;26;20003;-93
2024/04/18 01:17:48;;;;;;;16.90;14.73;;;;;;;;;;5353117;26;20073;-93
2024/04/18 01:20:43;;;;;;;15.02;13.48;;;;;;;;;;5352594;26;20077;-92
2024/04/18 01:23:12;;;;;;;13.45;12.07;;;;;;;;;;5352905;26;20000;-94
2024/04/18 01:25:39;;;;;;;16.35;14.70;;;;;;;;;;5383832;26;20007;-93
2024/04/18 01:28:08;;;;;;;14.75;13.30;;;;;;;;;;5353239;26;20341;-94
2024/04/18 01:30:36;;;;;;;15.77;14.23;;;;;;;;;;5332761;26;20001;-93
2024/04/18 01:33:05;;;;;;;13.40;12.20;;;;;;;;;;5407729;21;20001;-91
2024/04/18 01:35:34;;;;;;;13.00;11.60;;;;;;;;;;5359181;26;20076;-93
2024/04/18 01:38:05;;;;;;;15.93;14.30;;;;;;;;;;5353068;26;19996;-94
2024/04/18 01:40:35;;;;;;;12.05;10.73;;;;;;;;;;5352389;26;20379;-93
2024/04/18 01:43:07;;;;;;;14.68;13.38;;;;;;;;;;5352464;26;20000;-93
2024/04/18 01:45:36;;;;;;;16.80;15.05;;;;;;;;;;5352629;26;19996;-93
2024/04/18 01:48:02;;;;;;;15.73;14.23;;;;;;;;;;5346549;26;20005;-94
2024/04/18 01:50:31;;;;;;;15.77;13.85;;;;;;;;;;5346980;26;19997;-94
2024/04/18 01:53:00;;;;;;;16.00;14.38;;;;;;;;;;5352422;26;20000;-92
2024/04/18 01:55:30;;;;;;;18.23;12.10;;;;;;;;;;5352192;26;20033;-92
2024/04/18 01:57:56;;;;;;;16.80;15.02;;;;;;;;;;5352167;26;20004;-93
2024/04/18 02:00:25;;;;;;;16.08;13.65;;;;;;;;;;5351965;26;20003;-93
2024/04/18 02:02:57;;;;;;;16.17;11.27;;;;;;;;;;5352277;26;20007;-93
2024/04/18 02:05:24;;;;;;;15.23;13.63;;;;;;;;;;5352480;26;20008;-93
2024/04/18 02:07:50;;;;;;;16.23;13.25;;;;;;;;;;5352131;26;20000;-92
2024/04/18 02:10:16;;;;;;;14.55;12.63;;;;;;;;;;5352105;26;20491;-92
2024/04/18 02:12:42;;;;;;;15.05;12.10;;;;;;;;;;5352179;26;20069;-93
2024/04/18 02:15:11;;;;;;;15.02;12.60;;;;;;;;;;5352000;26;20001;-93
2024/04/18 02:17:38;;;;;;;14.80;11.23;;;;;;;;;;5352264;26;20000;-93
2024/04/18 02:20:17;;;;;;;13.68;11.20;;;;;;;;;;5351709;26;20507;-92
2024/04/18 02:22:43;;;;;;;10.73;8.75;;;;;;;;;;5352209;26;20032;-94
2024/04/18 02:25:15;;;;;;;15.57;12.77;;;;;;;;;;5352007;26;20008;-93
2024/04/18 02:27:45;;;;;;;13.90;10.10;;;;;;;;;;5354419;26;20000;-93
2024/04/18 02:30:43;;;;;;;14.48;9.70;;;;;;;;;;5354663;26;20000;-93
2024/04/18 02:33:09;;;;;;;14.05;10.55;;;;;;;;;;5354738;26;20011;-93
2024/04/18 02:35:35;;;;;;;16.67;13.85;;;;;;;;;;5355378;26;20006;-92
2024/04/18 02:38:01;;;;;;;14.68;11.27;;;;;;;;;;5385845;26;20412;-91
2024/04/18 02:40:28;;;;;;;17.13;11.60;;;;;;;;;;5352799;26;20012;-93
2024/04/18 02:42:54;;;;;;;16.55;11.65;;;;;;;;;;5320152;26;20004;-93
2024/04/18 02:45:20;;;;;;;14.48;11.20;;;;;;;;;;5321321;26;19997;-93
2024/04/18 02:47:46;;;;;;;15.60;13.55;;;;;;;;;;5320672;26;20037;-93
2024/04/18 02:50:19;;;;;;;16.73;12.32;;;;;;;;;;5330988;26;20012;-93
2024/04/18 02:52:45;;;;;;;14.82;12.68;;;;;;;;;;5348894;26;20023;-93
2024/04/18 02:55:11;;;;;;;15.65;13.63;;;;;;;;;;5349215;26;20009;-93
2024/04/18 02:57:37;;;;;;;17.88;15.35;;;;;;;;;;5349189;26;20004;-93
2024/04/18 03:00:09;;;;;;;17.15;14.20;;;;;;;;;;5354984;26;20000;-93
2024/04/18 03:02:39;;;;;;;15.00;12.45;;;;;;;;;;5348822;26;20033;-93
2024/04/18 03:05:05;;;;;;;19.50;14.70;;;;;;;;;;5348840;26;20012;-93
2024/04/18 03:07:34;;;;;;;14.60;11.63;;;;;;;;;;5345945;26;20040;-92
2024/04/18 03:10:00;;;;;;;15.60;11.50;;;;;;;;;;5348613;26;20446;-92
2024/04/18 03:12:27;;;;;;;19.05;15.45;;;;;;;;;;5354698;26;20004;-94
2024/04/18 03:14:56;;;;;;;16.45;12.75;;;;;;;;;;5367582;26;20086;-88
2024/04/18 03:17:34;;;;;;;18.02;14.20;;;;;;;;;;5326312;26;20044;-92
2024/04/18 03:20:04;;;;;;;16.83;12.73;;;;;;;;;;5320008;26;20117;-92
2024/04/18 03:22:37;;;;;;;19.17;15.63;;;;;;;;;;5327315;26;20010;-92
2024/04/18 03:25:04;;;;;;;;;;;;;;;;;;5355043;26;19999;-93
2024/04/18 03:27:36;;;;;;;16.88;13.50;;;;;;;;;;5354366;26;19925;-92
2024/04/18 03:30:09;;;;;;;17.77;12.77;;;;;;;;;;5354593;26;20008;-92
2024/04/18 03:32:39;;;;;;;16.47;10.87;;;;;;;;;;5385032;26;20004;-93
2024/04/18 03:35:08;;;;;;;16.17;11.45;;;;;;;;;;5348013;26;20012;-92
2024/04/18 03:37:37;;;;;;;18.05;14.23;;;;;;;;;;5348425;26;20000;-93
2024/04/18 03:40:09;;;;;;;16.55;13.18;;;;;;;;;;5348737;26;20078;-93
2024/04/18 03:42:40;;;;;;;18.08;14.75;;;;;;;;;;5339021;26;20026;-93
2024/04/18 03:45:07;;;;;;;15.52;11.57;;;;;;;;;;5348978;26;20414;-93
2024/04/18 03:47:59;;;;;;;16.80;11.60;;;;;;;;;;5346592;26;20000;-93
2024/04/18 03:50:28;;;;;;;16.05;12.18;;;;;;;;;;5345551;26;20020;-94
2024/04/18 03:52:57;;;;;;;17.42;13.75;;;;;;;;;;5348596;26;20005;-93
2024/04/18 03:55:26;;;;;;;19.92;12.40;;;;;;;;;;5348212;26;20011;-93
2024/04/18 03:57:55;;;;;;;16.63;14.32;;;;;;;;;;5347876;26;20095;-91
2024/04/18 04:00:30;;;;;;;17.20;10.95;;;;;;;;;;5339140;26;20017;-92
2024/04/18 04:02:56;;;;;;;14.10;10.63;;;;;;;;;;5315137;26;20001;-90
2024/04/18 04:05:28;;;;;;;17.67;14.02;;;;;;;;;;5332899;26;20373;-91
2024/04/18 04:07:55;;;;;;;16.90;12.63;;;;;;;;;;5347916;26;19997;-91
2024/04/18 04:10:24;;;;;;;18.55;10.80;;;;;;;;;;5347933;26;20009;-90
2024/04/18 04:12:50;;;;;;;13.88;9.70;;;;;;;;;;5348149;26;20003;-90
2024/04/18 04:15:19;;;;;;;15.27;13.13;;;;;;;;;;5347761;26;20449;-90
2024/04/18 04:17:54;;;;;;;13.88;10.13;;;;;;;;;;5348001;26;20020;-90
2024/04/18 04:20:25;;;;;;;14.63;11.82;;;;;;;;;;5349627;26;19997;-90
2024/04/18 04:22:51;;;;;;;13.57;10.90;;;;;;;;;;5348037;26;20007;-92
2024/04/18 04:25:17;;;;;;;14.70;11.98;;;;;;;;;;5347998;26;20007;-92
2024/04/18 04:28:11;;;;;;;14.80;11.05;;;;;;;;;;5349544;26;20019;-93
2024/04/18 04:30:37;;;;;;;;;;;;;;;;;;5348586;26;20021;-93
2024/04/18 04:33:07;;;;;;;16.23;12.27;;;;;;;;;;5348779;26;19933;-94
2024/04/18 04:35:33;;;;;;;16.00;13.93;;;;;;;;;;5348566;26;19997;-91
2024/04/18 04:37:59;;;;;;;13.40;10.40;;;;;;;;;;5348239;26;20001;-91
2024/04/18 04:40:25;;;;;;;12.68;11.25;;;;;;;;;;5348595;26;20435;-92
2024/04/18 04:43:03;;;;;;;;;;;;;;;;;;;;;
2024/04/18 04:45:45;;;;;;;15.13;13.52;;;;;;;;;;5349363;26;19993;-92
2024/04/18 04:48:11;;;;;;;12.20;11.00;;;;;;;;;;5336242;26;20022;-93
2024/04/18 04:50:40;;;;;;;16.90;15.13;;;;;;;;;;5332659;26;20083;-92
2024/04/18 04:53:07;;;;;;;15.95;14.40;;;;;;;;;;5349177;26;20069;-92
2024/04/18 04:55:42;;;;;;;17.85;15.98;;;;;;;;;;5349372;26;20021;-89
2024/04/18 04:58:10;;;;;;;17.17;15.55;;;;;;;;;;5318909;26;20037;-93
2024/04/18 05:00:36;;;;;;;18.55;16.83;;;;;;;;;;5329895;26;20001;-92
2024/04/18 05:03:03;;;;;;;19.95;18.27;;;;;;;;;;5349933;26;19993;-93
2024/04/18 05:05:32;;;;;;;19.33;17.73;;;;;;;;;;5347535;26;20033;-92
2024/04/18 05:07:58;;;;;;;21.60;19.90;;;;;;;;;;5348877;26;20013;-91
2024/04/18 05:10:24;;;;;;;24.48;22.45;;;;;;;;;;5348059;26;20072;-92
2024/04/18 05:12:50;;;;;;;23.98;22.15;;;;;;;;;;5348799;26;20001;-93
2024/04/18 05:15:16;;;;;;;29.48;27.48;;;;;;;;;;5350553;26;20028;-93
2024/04/18 05:17:47;;;;;;;27.45;25.45;;;;;;;;;;5349949;26;19997;-93
2024/04/18 05:20:13;;;;;;;31.95;29.63;;;;;;;;;;5349355;26;20004;-93
2024/04/18 05:22:39;;;;;;;30.98;28.85;;;;;;;;;;5348299;26;20001;-94
2024/04/18 05:25:05;;;;;;;40.08;37.45;;;;;;;;;;5333151;26;20547;-94
2024/04/18 05:27:33;;;;;;;35.85;33.38;;;;;;;;;;5349649;26;20067;-94
2024/04/18 05:32:47;;;;;;;44.58;41.65;;;;;;;;;;5315598;27;20012;-94
2024/04/18 05:35:15;;;;;;;39.03;36.47;;;;;;;;;;5343478;26;20005;-93
2024/04/18 05:37:44;;;;;;;43.97;40.80;;;;;;;;;;5319075;26;20422;-93
2024/04/18 05:40:17;;;;;;;44.50;41.58;;;;;;;;;;5349884;26;20005;-93
2024/04/18 05:42:43;;;;;;;40.13;37.13;;;;;;;;;;5318804;26;20008;-93
2024/04/18 05:45:12;;;;;;;35.80;33.20;;;;;;;;;;5318783;26;20005;-93
2024/04/18 05:47:39;;;;;;;43.50;40.65;;;;;;;;;;5318428;26;20441;-93
2024/04/18 05:50:05;;;;;;;49.15;45.90;;;;;;;;;;5318480;26;20051;-94
2024/04/18 05:52:32;;;;;;;50.28;47.05;;;;;;;;;;5318141;26;20001;-93
2024/04/18 05:54:58;;;;;;;53.10;49.67;;;;;;;;;;5348799;26;20461;-93
2024/04/18 05:57:27;;;;;;;54.85;51.38;;;;;;;;;;5338694;26;20001;-93
2024/04/18 05:59:56;;;;;;;45.03;42.08;;;;;;;;;;5344048;26;20001;-93
2024/04/18 06:02:22;;;;;;;50.63;47.38;;;;;;;;;;5318115;26;20009;-93
2024/04/18 06:04:48;;;;;;;46.33;43.50;;;;;;;;;;5318225;26;19997;-93
2024/04/18 06:07:18;;;;;;;68.85;64.57;;;;;;;;;;5318148;26;20001;-94
2024/04/18 06:09:50;;;;;;;92.90;87.22;;;;;;;;;;5318028;26;20005;-92
2024/04/18 06:12:22;;;;;;;58.53;55.05;;;;;;;;;;5318043;26;20000;-95
2024/04/18 06:14:48;;;;;;;33.60;31.63;;;;;;;;;;5318298;26;20011;-92
2024/04/18 06:17:15;;;;;;;22.83;21.42;;;;;;;;;;5317768;26;20002;-93
2024/04/18 06:19:41;;;;;;;21.80;20.40;;;;;;;;;;5318300;26;20029;-93
2024/04/18 06:22:07;;;;;;;17.55;16.25;;;;;;;;;;5317821;26;20074;-93
2024/04/18 06:24:34;;;;;;;21.65;20.25;;;;;;;;;;5317602;26;20000;-93
2024/04/18 06:27:00;;;;;;;16.90;15.68;;;;;;;;;;5289783;26;20041;-92
2024/04/18 06:29:29;;;;;;;19.00;17.75;;;;;;;;;;5318538;26;19997;-93
2024/04/18 06:31:55;;;;;;;20.40;19.08;;;;;;;;;;5318766;26;20469;-92
2024/04/18 06:34:23;;;;;;;24.92;23.33;;;;;;;;;;5312436;27;20042;-93
2024/04/18 06:36:49;;;;;;;20.50;19.20;;;;;;;;;;5334722;26;20006;-94
2024/04/18 06:39:15;;;;;;;15.60;14.40;;;;;;;;;;5300365;27;20072;-92
2024/04/18 06:41:41;;;;;;;25.02;23.38;;;;;;;;;;5313936;26;19998;-95
2024/04/18 06:44:11;;;;;;;23.23;21.75;;;;;;;;;;5311811;26;20015;-95
2024/04/18 06:49:54;;;;;;;14.88;13.77;;;;;;;;;;5315478;27;20070;-94
2024/04/18 06:55:28;;;;;;;15.85;14.73;;;;;;;;;;5313676;27;20082;-94
2024/04/18 06:58:22;;;;;;;13.65;12.70;;;;;;;;;;5311528;27;19993;-94
2024/04/18 07:01:14;;;;;;;15.43;14.32;;;;;;;;;;5314044;26;20009;-94
2024/04/18 07:03:40;;;;;;;13.25;12.25;;;;;;;;;;5346114;26;20001;-94
2024/04/18 07:06:23;;;;;;;13.32;12.43;;;;;;;;;;5346018;26;20483;-94
2024/04/18 07:08:52;;;;;;;17.13;15.82;;;;;;;;;;5331887;26;20001;-93
2024/04/18 07:14:10;;;;;;;22.10;20.70;;;;;;;;;;5316477;26;20457;-94
2024/04/18 07:19:58;;;;;;;;;;;;;;;;;;5342723;26;20004;-94
2024/04/18 07:22:30;;;;;;;15.25;14.15;;;;;;;;;;5334455;26;19926;-93
2024/04/18 07:25:10;;;;;;;;;;;;;;;;;;;;;
2024/04/18 07:27:36;;;;;;;19.88;18.58;;;;;;;;;;5316531;27;20013;-94
2024/04/18 07:30:15;;;;;;;21.60;20.00;;;;;;;;;;5314291;27;20013;-93
2024/04/18 07:33:01;;;;;;;20.65;19.15;;;;;;;;;;5314298;27;20052;-95
2024/04/18 07:35:27;;;;;;;17.27;16.13;;;;;;;;;;5314070;26;20469;-92
2024/04/18 07:38:18;;;;;;;16.13;15.05;;;;;;;;;;5324215;26;20023;-93
2024/04/18 07:40:47;;;;;;;19.60;18.30;;;;;;;;;;5314568;27;20414;-94
2024/04/18 07:43:13;;;;;;;24.35;22.77;;;;;;;;;;5315150;27;19998;-94
2024/04/18 07:45:42;;;;;;;21.58;20.20;;;;;;;;;;5315234;27;20002;-94
2024/04/18 07:48:08;;;;;;;19.42;18.20;;;;;;;;;;5313835;27;20005;-94
2024/04/18 07:50:37;;;;;;;18.98;17.67;;;;;;;;;;5319153;27;20339;-95
2024/04/18 07:53:36;;;;;;;14.52;13.63;;;;;;;;;;5327601;26;20001;-96
2024/04/18 07:56:04;;;;;;;19.42;18.02;;;;;;;;;;5313322;27;20001;-93
2024/04/18 08:01:41;;;;;;;18.85;17.65;;;;;;;;;;5244850;27;20007;-94
2024/04/18 08:04:21;;;;;;;;;;;;;;;;;;;;;
2024/04/18 08:07:06;;;;;;;20.38;19.08;;;;;;;;;;5317324;26;20006;-94
2024/04/18 08:09:33;;;;;;;15.35;14.38;;;;;;;;;;5346369;26;20442;-96
2024/04/18 08:12:08;;;;;;;19.90;18.55;;;;;;;;;;5331873;26;20001;-96
2024/04/18 08:14:37;;;;;;;16.83;15.65;;;;;;;;;;5315059;26;19998;-94
2024/04/18 08:17:04;;;;;;;14.32;13.32;;;;;;;;;;5319291;26;19993;-92
2024/04/18 08:19:33;;;;;;;17.80;16.70;;;;;;;;;;5333283;26;20006;-94
2024/04/18 08:21:59;;;;;;;19.48;18.25;;;;;;;;;;5349635;26;20075;-94
2024/04/18 08:24:28;;;;;;;21.70;20.10;;;;;;;;;;5342760;26;20453;-94
2024/04/18 08:26:57;;;;;;;25.05;23.48;;;;;;;;;;5314462;26;20063;-95
2024/04/18 08:29:32;;;;;;;19.13;17.75;;;;;;;;;;5314729;26;19997;-96
2024/04/18 08:32:02;;;;;;;20.90;19.20;;;;;;;;;;5315188;26;20001;-94
2024/04/18 08:34:31;;;;;;;30.40;28.23;;;;;;;;;;5332220;26;20100;-95
2024/04/18 08:37:03;;;;;;;21.27;19.88;;;;;;;;;;5348418;26;20001;-96
2024/04/18 08:42:58;;;;;;;26.02;24.33;;;;;;;;;;5335330;26;20463;-96
2024/04/18 08:45:34;;;;;;;30.33;28.38;;;;;;;;;;5321054;26;20005;-94
2024/04/18 08:48:05;;;;;;;18.55;17.35;;;;;;;;;;5349278;26;20434;-95
2024/04/18 08:50:32;;;;;;;33.58;31.55;;;;;;;;;;5331803;26;20001;-94
2024/04/18 08:53:01;;;;;;;20.13;18.73;;;;;;;;;;5313348;26;20472;-93
2024/04/18 08:55:27;;;;;;;23.80;22.20;;;;;;;;;;5285464;27;20021;-94
2024/04/18 08:58:01;;;;;;;31.55;29.55;;;;;;;;;;5332730;26;20016;-95
2024/04/18 09:00:37;;;;;;;36.00;33.85;;;;;;;;;;5349879;26;20001;-95
2024/04/18 09:03:06;;;;;;;47.63;44.90;;;;;;;;;;5342958;26;20005;-94
2024/04/18 09:05:37;;;;;;;39.13;36.80;;;;;;;;;;5312442;26;19997;-94
2024/04/18 09:08:27;;;;;;;26.60;24.85;;;;;;;;;;5313575;26;20049;-93
2024/04/18 09:11:02;;;;;;;15.02;13.93;;;;;;;;;;5277634;27;20002;-92
2024/04/18 09:13:34;;;;;;;20.92;19.55;;;;;;;;;;5304892;27;20462;-95
2024/04/18 09:19:07;;;;;;;16.83;15.80;;;;;;;;;;5315408;27;20008;-93
2024/04/18 09:21:34;;;;;;;19.55;18.35;;;;;;;;;;5312890;27;20012;-94
2024/04/18 09:24:00;;;;;;;20.42;19.15;;;;;;;;;;5312837;27;20005;-93
2024/04/18 09:26:29;;;;;;;16.20;15.20;;;;;;;;;;5312723;27;19998;-94
2024/04/18 09:28:56;;;;;;;13.95;12.95;;;;;;;;;;5313061;27;20009;-93
2024/04/18 09:31:23;;;;;;;20.52;19.13;;;;;;;;;;5312983;27;20002;-94
2024/04/18 09:33:49;;;;;;;23.77;22.33;;;;;;;;;;5318337;26;20008;-94
2024/04/18 09:36:16;;;;;;;13.15;12.15;;;;;;;;;;5318611;26;20009;-93
2024/04/18 09:38:49;;;;;;;18.02;16.85;;;;;;;;;;5318708;26;20009;-95
2024/04/18 09:41:23;;;;;;;19.42;18.08;;;;;;;;;;5318722;26;20066;-93
2024/04/18 09:44:00;;;;;;;26.50;24.90;;;;;;;;;;5319010;26;20430;-94
2024/04/18 09:46:27;;;;;;;18.23;17.10;;;;;;;;;;5319067;26;20000;-94
2024/04/18 09:49:02;;;;;;;17.65;16.45;;;;;;;;;;5318297;26;20012;-94
2024/04/18 09:51:31;;;;;;;19.55;18.30;;;;;;;;;;5319783;26;20445;-94
2024/04/18 09:54:01;;;;;;;20.40;19.00;;;;;;;;;;5319138;26;20315;-94
2024/04/18 09:56:28;;;;;;;24.92;23.42;;;;;;;;;;5322609;26;20013;-94
2024/04/18 09:58:59;;;;;;;21.98;20.67;;;;;;;;;;5345150;26;20049;-96
2024/04/18 10:01:26;;;;;;;30.77;28.90;;;;;;;;;;5374073;26;20003;-94
2024/04/18 10:03:58;;;;;;;33.03;31.02;;;;;;;;;;5366438;26;20003;-93
2024/04/18 10:06:28;;;;;;;27.55;25.90;;;;;;;;;;5347303;26;20001;-93
2024/04/18 10:08:55;;;;;;;22.70;21.20;;;;;;;;;;5349612;26;19997;-94
2024/04/18 10:11:22;;;;;;;23.92;22.35;;;;;;;;;;5351538;26;20008;-94
2024/04/18 10:13:49;;;;;;;22.63;21.17;;;;;;;;;;5346402;26;20017;-92
2024/04/18 10:16:15;;;;;;;25.35;23.77;;;;;;;;;;5334071;26;20056;-93
2024/04/18 10:21:50;;;;;;;19.38;18.25;;;;;;;;;;5383234;26;20008;-92
2024/04/18 10:24:19;;;;;;;27.30;25.52;;;;;;;;;;5350839;26;20001;-93
2024/04/18 10:26:45;;;;;;;27.60;25.90;;;;;;;;;;5351794;26;20005;-91
2024/04/18 10:29:38;;;;;;;36.78;34.28;;;;;;;;;;5344570;26;20495;-93
2024/04/18 10:32:04;;;;;;;31.52;29.58;;;;;;;;;;5342084;26;20014;-93
2024/04/18 10:34:31;;;;;;;37.08;34.90;;;;;;;;;;5338415;26;20009;-92
2024/04/18 10:37:05;;;;;;;47.85;45.08;;;;;;;;;;5338181;26;19997;-93
2024/04/18 10:39:43;;;;;;;35.58;33.55;;;;;;;;;;5318356;26;20025;-93
2024/04/18 10:42:10;;;;;;;34.75;32.10;;;;;;;;;;5337827;26;20008;-93
2024/04/18 10:44:37;;;;;;;42.55;39.95;;;;;;;;;;5320423;26;20005;-95
2024/04/18 10:47:23;;;;;;;47.85;45.13;;;;;;;;;;5321127;26;20121;-92
2024/04/18 10:49:52;;;;;;;48.05;45.25;;;;;;;;;;5321406;26;20008;-93
2024/04/18 10:52:18;;;;;;;41.75;39.38;;;;;;;;;;5332119;26;20005;-90
2024/04/18 10:54:51;;;;;;;44.50;41.85;;;;;;;;;;5347875;26;20012;-95
2024/04/18 10:57:18;;;;;;;46.88;44.25;;;;;;;;;;5337653;26;20016;-91
2024/04/18 10:59:46;;;;;;;39.97;37.60;;;;;;;;;;5337477;26;20015;-94
2024/04/18 11:02:13;;;;;;;38.58;36.25;;;;;;;;;;5348848;26;20020;-92
2024/04/18 11:04:40;;;;;;;42.00;39.45;;;;;;;;;;5330534;26;20075;-95
2024/04/18 11:07:15;;;;;;;37.20;34.92;;;;;;;;;;5315421;26;20002;-93
2024/04/18 11:09:48;;;;;;;36.65;34.60;;;;;;;;;;5322221;26;20333;-95
2024/04/18 11:12:18;;;;;;;43.30;40.78;;;;;;;;;;5349567;26;20013;-93
2024/04/18 11:14:44;;;;;;;48.15;45.25;;;;;;;;;;5336344;26;20005;-95
2024/04/18 11:17:13;;;;;;;72.32;68.22;;;;;;;;;;5314461;26;20001;-94
2024/04/18 11:20:02;;;;;;;;;;;;;;;;;;;;;
2024/04/18 11:22:38;;;;;;;42.03;39.63;;;;;;;;;;5329439;26;20005;-92
2024/04/18 11:25:04;;;;;;;33.15;31.00;;;;;;;;;;5324806;26;20009;-90
2024/04/18 11:27:30;;;;;;;38.67;36.40;;;;;;;;;;5313853;27;20008;-92
2024/04/18 11:29:56;;;;;;;42.40;39.92;;;;;;;;;;5314388;27;20450;-94
2024/04/18 11:32:23;;;;;;;39.95;37.55;;;;;;;;;;5308206;26;19993;-93
2024/04/18 11:34:50;;;;;;;38.65;36.45;;;;;;;;;;5340802;26;20033;-94
2024/04/18 11:40:34;;;;;;;32.38;30.25;;;;;;;;;;5297420;26;20012;-94
2024/04/18 11:43:00;;;;;;;30.45;28.50;;;;;;;;;;5354759;26;19996;-94
2024/04/18 11:45:26;;;;;;;30.95;29.00;;;;;;;;;;5354571;26;20425;-95
2024/04/18 11:47:59;;;;;;;27.95;26.25;;;;;;;;;;5354698;26;20004;-94
2024/04/18 11:50:25;;;;;;;39.33;37.10;;;;;;;;;;5354634;26;20042;-94
2024/04/18 11:52:52;;;;;;;33.70;31.73;;;;;;;;;;5354381;26;20020;-93
2024/04/18 11:55:18;;;;;;;30.73;28.92;;;;;;;;;;5355149;26;20033;-95
2024/04/18 11:57:44;;;;;;;26.98;25.35;;;;;;;;;;5354323;26;20066;-95
2024/04/18 12:00:11;;;;;;;24.05;22.63;;;;;;;;;;5354823;26;20011;-93
2024/04/18 12:02:37;;;;;;;18.77;17.55;;;;;;;;;;5354313;26;20069;-94
2024/04/18 12:05:04;;;;;;;17.63;16.30;;;;;;;;;;5355154;26;20000;-93
2024/04/18 12:07:33;;;;;;;22.58;21.17;;;;;;;;;;5354295;26;20000;-93
2024/04/18 12:10:02;;;;;;;26.65;25.15;;;;;;;;;;5354510;26;20007;-95
2024/04/18 12:12:33;;;;;;;29.98;28.08;;;;;;;;;;5354666;26;19997;-96
2024/04/18 12:15:00;;;;;;;26.48;24.83;;;;;;;;;;5354886;26;20032;-94
2024/04/18 12:17:30;;;;;;;33.75;31.77;;;;;;;;;;5354036;26;20007;-95
2024/04/18 12:19:56;;;;;;;27.60;26.00;;;;;;;;;;5354615;26;20073;-95
2024/04/18 12:22:35;;;;;;;34.33;32.35;;;;;;;;;;5354003;26;19996;-95
2024/04/18 12:25:02;;;;;;;35.72;33.53;;;;;;;;;;5354966;26;20000;-95
2024/04/18 12:27:28;;;;;;;34.28;32.33;;;;;;;;;;5348427;26;20004;-94
2024/04/18 12:29:54;;;;;;;38.72;36.55;;;;;;;;;;5350426;26;20004;-93
2024/04/18 12:32:26;;;;;;;33.47;31.60;;;;;;;;;;5438397;21;20008;-94
2024/04/18 12:34:52;;;;;;;35.07;32.90;;;;;;;;;;5367763;26;19997;-94
2024/04/18 12:37:28;;;;;;;29.45;27.75;;;;;;;;;;5354300;26;20702;-96
2024/04/18 12:39:54;;;;;;;25.92;24.42;;;;;;;;;;5353491;26;20006;-94
2024/04/18 12:42:30;;;;;;;;;;;;;;;;;;;;;
2024/04/18 12:48:03;;;;;;;34.75;32.70;;;;;;;;;;5350214;26;20004;-95
2024/04/18 12:50:29;;;;;;;36.00;33.90;;;;;;;;;;5350885;26;20011;-95
2024/04/18 12:53:11;;;;;;;34.85;32.88;;;;;;;;;;5354696;26;20502;-95
2024/04/18 12:55:38;;;;;;;32.92;31.00;;;;;;;;;;5357091;26;20027;-94
2024/04/18 13:00:54;;;;;;;49.30;46.60;;;;;;;;;;5314562;27;19998;-95
2024/04/18 13:03:21;;;;;;;41.17;38.78;;;;;;;;;;5345153;26;20008;-96
2024/04/18 13:05:48;;;;;;;36.30;34.25;;;;;;;;;;5356816;26;19996;-94
2024/04/18 13:08:14;;;;;;;38.22;36.03;;;;;;;;;;5355646;26;19996;-95
2024/04/18 13:10:40;;;;;;;39.33;37.03;;;;;;;;;;5326062;26;19996;-94
2024/04/18 13:13:09;;;;;;;39.17;36.97;;;;;;;;;;5353783;26;20000;-94
2024/04/18 13:15:36;;;;;;;41.38;39.00;;;;;;;;;;5329059;26;20005;-95
2024/04/18 13:18:08;;;;;;;45.30;42.70;;;;;;;;;;5336473;26;19996;-96
2024/04/18 13:20:37;;;;;;;38.15;35.97;;;;;;;;;;5344216;26;20013;-94
2024/04/18 13:23:35;;;;;;;45.33;42.75;;;;;;;;;;5334529;26;20008;-93
2024/04/18 13:26:29;;;;;;;41.17;38.88;;;;;;;;;;5291673;26;19986;-95
2024/04/18 13:28:59;;;;;;;35.65;33.75;;;;;;;;;;5251368;27;20035;-95
2024/04/18 13:35:02;;;;;;;42.65;40.33;;;;;;;;;;5223692;27;20075;-94
2024/04/18 13:37:55;;;;;;;41.35;39.13;;;;;;;;;;5210140;26;20009;-93
2024/04/18 13:40:21;;;;;;;33.30;31.42;;;;;;;;;;5320978;26;20000;-95
2024/04/18 13:43:01;;;;;;;43.42;41.00;;;;;;;;;;5387242;21;20017;-96
2024/04/18 13:45:49;;;;;;;;;;;;;;;;;;;;;
2024/04/18 13:49:03;;;;;;;41.63;39.33;;;;;;;;;;5298925;27;20002;-94
2024/04/18 13:51:29;;;;;;;39.65;37.38;;;;;;;;;;5185198;27;19996;-95
2024/04/18 14:00:31;;;;;;;35.05;33.10;;;;;;;;;;5146959;27;20458;-96
2024/04/18 14:03:06;;;;;;;43.40;40.85;;;;;;;;;;5147566;27;20001;-95
2024/04/18 14:05:33;;;;;;;42.30;39.70;;;;;;;;;;5181352;27;20075;-96
2024/04/18 14:08:02;;;;;;;45.95;43.13;;;;;;;;;;5254545;27;20086;-95
2024/04/18 14:10:32;;;;;;;46.08;43.45;;;;;;;;;;5285964;27;20012;-95
2024/04/18 14:12:58;;;;;;;53.45;49.97;;;;;;;;;;5317323;26;20005;-96
2024/04/18 14:15:36;;;;;;;45.95;43.25;;;;;;;;;;5318748;26;20001;-94
2024/04/18 14:21:03;;;;;;;44.40;41.88;;;;;;;;;;5316848;27;20012;-96
2024/04/18 14:23:48;;;;;;;45.00;42.40;;;;;;;;;;5251672;27;19998;-95
2024/04/18 14:26:19;;;;;;;55.78;52.65;;;;;;;;;;5226831;27;20085;-94
2024/04/18 14:28:48;;;;;;;75.25;70.90;;;;;;;;;;5232043;27;20083;-95
2024/04/18 14:31:22;;;;;;;48.20;45.47;;;;;;;;;;5255416;27;20031;-94
2024/04/18 14:45:32;;;;;;;47.35;44.33;;;;;;;;;;5351584;26;20091;-95
2024/04/18 14:48:01;;;;;;;56.10;52.80;;;;;;;;;;5351356;26;20001;-95
2024/04/18 14:50:28;;;;;;;52.05;49.08;;;;;;;;;;5349398;26;20015;-94
2024/04/18 15:02:21;;;;;;;50.92;47.80;;;;;;;;;;5226358;27;20042;-96
2024/04/18 15:04:48;;;;;;;42.80;40.30;;;;;;;;;;5215630;27;20022;-93
2024/04/18 15:07:17;;;;;;;54.10;50.55;;;;;;;;;;5126680;27;19998;-93
2024/04/18 15:10:06;;;;;;;45.72;43.20;;;;;;;;;;5201709;27;20067;-93
2024/04/18 15:12:38;;;;;;;41.45;39.08;;;;;;;;;;5190637;26;20000;-95
2024/04/18 15:15:04;;;;;;;51.60;48.30;;;;;;;;;;5328582;26;20008;-92
2024/04/18 15:18:05;;;;;;;47.97;45.03;;;;;;;;;;5314654;26;20040;-92
2024/04/18 15:20:31;;;;;;;49.92;47.03;;;;;;;;;;5271070;27;19997;-93
2024/04/18 15:22:57;;;;;;;50.00;46.85;;;;;;;;;;5256144;27;20343;-93
2024/04/18 15:25:23;;;;;;;41.67;39.20;;;;;;;;;;5302234;27;20013;-94
2024/04/18 15:27:49;;;;;;;40.22;37.65;;;;;;;;;;5307764;27;20427;-94
2024/04/18 15:30:16;;;;;;;44.22;41.63;;;;;;;;;;5282829;27;20002;-92
2024/04/18 15:32:51;;;;;;;39.72;37.42;;;;;;;;;;5348389;26;20009;-94
2024/04/18 15:35:17;;;;;;;38.97;36.58;;;;;;;;;;5330563;26;20020;-95
2024/04/18 15:37:46;;;;;;;37.38;34.90;;;;;;;;;;5350263;26;20040;-93
2024/04/18 15:40:12;;;;;;;37.28;35.03;;;;;;;;;;5334176;26;20001;-95
2024/04/18 15:42:38;;;;;;;38.55;36.20;;;;;;;;;;5349131;26;20326;-95
2024/04/18 15:45:05;;;;;;;46.70;43.97;;;;;;;;;;5337537;26;20002;-96
2024/04/18 15:47:34;;;;;;;44.10;41.55;;;;;;;;;;5314589;27;20005;-96
2024/04/18 15:50:03;;;;;;;35.50;33.40;;;;;;;;;;5314857;27;20030;-94
2024/04/18 15:52:32;;;;;;;36.05;33.75;;;;;;;;;;5347637;26;20004;-95